createdAt,value
2022-12-18T00:01:37.853Z,-4.84
2022-12-18T00:04:14.522Z,-4.87
2022-12-18T00:06:41.964Z,-4.66
2022-12-18T00:09:10.765Z,-4.50
2022-12-18T00:11:38.177Z,-4.29
2022-12-18T00:14:06.098Z,-4.17
2022-12-18T00:16:36.406Z,-4.21
2022-12-18T00:19:05.700Z,-4.33
2022-12-18T00:21:34.964Z,-4.34
2022-12-18T00:24:02.688Z,-4.62
2022-12-18T00:26:35.128Z,-4.35
2022-12-18T00:29:14.901Z,-4.15
2022-12-18T00:31:45.017Z,-4.24
2022-12-18T00:34:14.671Z,-4.34
2022-12-18T00:36:43.152Z,-4.29
2022-12-18T00:39:13.340Z,-4.47
2022-12-18T00:42:00.024Z,-4.18
2022-12-18T00:44:27.624Z,-4.18
2022-12-18T00:46:55.146Z,-4.28
2022-12-18T00:49:22.640Z,-4.39
2022-12-18T00:51:51.537Z,-4.27
2022-12-18T00:54:19.486Z,-4.55
2022-12-18T00:56:50.276Z,-4.27
2022-12-18T00:59:23.859Z,-4.46
2022-12-18T01:01:52.005Z,-4.22
2022-12-18T01:04:21.441Z,-4.06
2022-12-18T01:06:49.848Z,-4.21
2022-12-18T01:09:17.336Z,-4.46
2022-12-18T01:11:44.849Z,-4.22
2022-12-18T01:14:12.614Z,-4.31
2022-12-18T01:16:40.433Z,-4.45
2022-12-18T01:19:08.118Z,-4.47
2022-12-18T01:21:35.892Z,-4.33
2022-12-18T01:24:11.476Z,-4.28
2022-12-18T01:26:39.104Z,-4.50
2022-12-18T01:29:06.574Z,-4.53
2022-12-18T01:31:39.161Z,-4.68
2022-12-18T01:34:07.448Z,-4.50
2022-12-18T01:36:39.998Z,-4.34
2022-12-18T01:39:17.315Z,-4.37
2022-12-18T01:42:04.825Z,-4.40
2022-12-18T01:44:59.474Z,-4.24
2022-12-18T01:47:48.274Z,-4.30
2022-12-18T01:50:47.352Z,-4.54
2022-12-18T01:53:23.549Z,-4.32
2022-12-18T01:55:56.858Z,-4.44
2022-12-18T01:58:43.698Z,-4.49
2022-12-18T02:01:11.692Z,-4.77
2022-12-18T02:03:43.773Z,-4.53
2022-12-18T02:06:28.640Z,-4.41
2022-12-18T02:09:11.983Z,-4.71
2022-12-18T02:12:18.754Z,-4.44
2022-12-18T02:15:04.424Z,-4.94
2022-12-18T02:17:51.542Z,-5.58
2022-12-18T02:20:53.216Z,-5.09
2022-12-18T02:23:52.617Z,-5.01
2022-12-18T02:26:33.189Z,-4.77
2022-12-18T02:29:09.827Z,-4.66
2022-12-18T02:31:49.156Z,-4.31
2022-12-18T02:34:20.020Z,-4.71
2022-12-18T02:36:50.467Z,-4.75
2022-12-18T02:39:22.125Z,-4.67
2022-12-18T02:42:00.818Z,-5.08
2022-12-18T02:44:28.440Z,-5.68
2022-12-18T02:46:56.333Z,-5.23
2022-12-18T02:50:00.043Z,-5.44
2022-12-18T02:52:55.541Z,-5.42
2022-12-18T02:56:07.050Z,-5.31
2022-12-18T02:59:13.793Z,-5.24
2022-12-18T03:02:53.832Z,-5.29
2022-12-18T03:05:34.492Z,-5.36
2022-12-18T03:08:21.501Z,-5.40
2022-12-18T03:11:04.528Z,-5.54
2022-12-18T03:13:57.201Z,-5.32
2022-12-18T03:16:32.340Z,-5.34
2022-12-18T03:19:12.362Z,-5.63
2022-12-18T03:21:53.072Z,-5.77
2022-12-18T03:24:23.300Z,-5.88
2022-12-18T03:26:59.818Z,-5.89
2022-12-18T03:29:44.970Z,-5.71
2022-12-18T03:32:32.371Z,-6.15
2022-12-18T03:35:06.852Z,-6.07
2022-12-18T03:37:37.963Z,-6.39
2022-12-18T03:40:07.652Z,-6.33
2022-12-18T03:42:54.590Z,-6.08
2022-12-18T03:45:37.156Z,-5.91
2022-12-18T03:48:55.692Z,-5.97
2022-12-18T03:52:18.255Z,-6.19
2022-12-18T03:54:48.091Z,-6.11
2022-12-18T03:57:30.251Z,-6.26
2022-12-18T04:00:15.566Z,-6.37
2022-12-18T04:02:58.135Z,-6.59
2022-12-18T04:05:36.425Z,-6.78
2022-12-18T04:08:05.682Z,-6.59
2022-12-18T04:10:37.751Z,-6.56
2022-12-18T04:13:05.345Z,-6.63
2022-12-18T04:15:38.039Z,-6.73
2022-12-18T04:18:09.631Z,-6.66
2022-12-18T04:20:41.083Z,-6.54
2022-12-18T04:23:11.507Z,-6.61
2022-12-18T04:25:39.818Z,-6.78
2022-12-18T04:28:17.559Z,-6.91
2022-12-18T04:30:45.227Z,-7.01
2022-12-18T04:33:18.483Z,-7.27
2022-12-18T04:35:46.905Z,-7.23
2022-12-18T04:38:15.155Z,-7.02
2022-12-18T04:40:43.049Z,-7.03
2022-12-18T04:43:18.604Z,-6.98
2022-12-18T04:45:45.943Z,-6.91
2022-12-18T04:48:13.548Z,-7.14
2022-12-18T04:50:41.054Z,-7.41
2022-12-18T04:53:08.773Z,-7.51
2022-12-18T04:55:40.155Z,-7.10
2022-12-18T04:58:07.625Z,-7.04
2022-12-18T05:00:35.122Z,-7.32
2022-12-18T05:03:03.922Z,-7.48
2022-12-18T05:05:31.782Z,-7.62
2022-12-18T05:07:59.174Z,-7.74
2022-12-18T05:10:26.672Z,-7.67
2022-12-18T05:13:01.039Z,-7.83
2022-12-18T05:15:34.123Z,-7.77
2022-12-18T05:18:03.786Z,-7.72
2022-12-18T05:20:31.931Z,-7.71
2022-12-18T05:22:59.346Z,-7.76
2022-12-18T05:25:27.086Z,-7.71
2022-12-18T05:27:55.285Z,-7.52
2022-12-18T05:30:23.544Z,-7.57
2022-12-18T05:32:51.081Z,-7.76
2022-12-18T05:35:18.548Z,-7.95
2022-12-18T05:37:47.461Z,-7.71
2022-12-18T05:40:15.091Z,-7.57
2022-12-18T05:42:42.483Z,-7.75
2022-12-18T05:45:10.475Z,-7.79
2022-12-18T05:47:38.189Z,-7.85
2022-12-18T05:50:07.966Z,-7.97
2022-12-18T05:52:35.492Z,-7.72
2022-12-18T05:55:03.109Z,-7.73
2022-12-18T05:57:30.982Z,-7.83
2022-12-18T05:59:58.892Z,-8.00
2022-12-18T06:02:26.813Z,-7.72
2022-12-18T06:04:54.429Z,-7.83
2022-12-18T06:07:21.914Z,-7.96
2022-12-18T06:09:51.678Z,-7.59
2022-12-18T06:12:19.033Z,-7.63
2022-12-18T06:14:46.650Z,-7.67
2022-12-18T06:17:13.945Z,-7.80
2022-12-18T06:19:41.308Z,-8.02
2022-12-18T06:22:08.721Z,-8.10
2022-12-18T06:24:36.065Z,-8.09
2022-12-18T06:27:03.410Z,-7.92
2022-12-18T06:29:30.844Z,-7.95
2022-12-18T06:31:58.552Z,-7.77
2022-12-18T06:34:25.979Z,-7.81
2022-12-18T06:36:53.378Z,-8.00
2022-12-18T06:39:21.105Z,-8.45
2022-12-18T06:41:48.743Z,-8.73
2022-12-18T06:44:16.276Z,-8.43
2022-12-18T06:46:43.655Z,-7.95
2022-12-18T06:49:11.207Z,-8.07
2022-12-18T06:51:39.027Z,-8.05
2022-12-18T06:54:06.665Z,-8.18
2022-12-18T06:56:35.415Z,-8.29
2022-12-18T06:59:02.988Z,-8.41
2022-12-18T07:01:30.757Z,-8.49
2022-12-18T07:04:07.125Z,-8.68
2022-12-18T07:06:37.752Z,-8.67
2022-12-18T07:09:05.265Z,-8.54
2022-12-18T07:11:34.957Z,-8.30
2022-12-18T07:14:02.618Z,-8.77
2022-12-18T07:16:30.200Z,-8.46
2022-12-18T07:18:58.045Z,-8.65
2022-12-18T07:21:26.542Z,-8.18
2022-12-18T07:23:54.332Z,-7.85
2022-12-18T07:26:23.119Z,-8.31
2022-12-18T07:28:51.826Z,-8.18
2022-12-18T07:31:22.869Z,-7.94
2022-12-18T07:33:54.275Z,-7.67
2022-12-18T07:36:21.787Z,-7.60
2022-12-18T07:38:52.607Z,-7.79
2022-12-18T07:41:20.290Z,-7.87
2022-12-18T07:43:48.190Z,-7.83
2022-12-18T07:46:17.312Z,-7.70
2022-12-18T07:48:49.516Z,-7.64
2022-12-18T07:51:18.885Z,-7.47
2022-12-18T07:53:49.449Z,-7.28
2022-12-18T07:56:30.537Z,-7.62
2022-12-18T07:59:00.218Z,-7.88
2022-12-18T08:01:28.532Z,-7.77
2022-12-18T08:03:57.259Z,-7.80
2022-12-18T08:06:28.023Z,-7.76
2022-12-18T08:08:57.571Z,-7.76
2022-12-18T08:11:28.815Z,-7.75
2022-12-18T08:13:57.302Z,-8.17
2022-12-18T08:16:28.069Z,-8.16
2022-12-18T08:18:55.982Z,-7.63
2022-12-18T08:21:31.596Z,-7.59
2022-12-18T08:24:02.376Z,-7.44
2022-12-18T08:26:32.326Z,-7.33
2022-12-18T08:29:01.954Z,-7.17
2022-12-18T08:31:31.547Z,-7.40
2022-12-18T08:34:24.943Z,-7.41
2022-12-18T08:36:52.376Z,-7.05
2022-12-18T08:39:19.968Z,-6.80
2022-12-18T08:42:10.214Z,-7.00
2022-12-18T08:44:41.216Z,-6.98
2022-12-18T08:47:09.292Z,-6.57
2022-12-18T08:49:37.568Z,-6.81
2022-12-18T08:52:05.367Z,-6.51
2022-12-18T08:54:32.878Z,-6.60
2022-12-18T08:57:03.199Z,-6.38
2022-12-18T08:59:31.174Z,-6.16
2022-12-18T09:01:58.700Z,-6.39
2022-12-18T09:04:26.290Z,-6.24
2022-12-18T09:06:57.086Z,-6.31
2022-12-18T09:09:24.431Z,-6.26
2022-12-18T09:11:52.044Z,-6.35
2022-12-18T09:14:19.953Z,-6.21
2022-12-18T09:16:51.170Z,-6.30
2022-12-18T09:19:18.852Z,-5.72
2022-12-18T09:21:48.455Z,-5.07
2022-12-18T09:24:17.819Z,-4.87
2022-12-18T09:26:58.034Z,-4.83
2022-12-18T09:29:38.734Z,-3.61
2022-12-18T09:32:22.519Z,-0.90
2022-12-18T09:34:50.332Z,1.52
2022-12-18T09:37:17.977Z,3.76
2022-12-18T09:39:45.638Z,5.41
2022-12-18T09:42:23.572Z,6.24
2022-12-18T09:44:55.233Z,5.72
2022-12-18T09:47:41.887Z,7.15
2022-12-18T09:50:41.894Z,8.00
2022-12-18T09:53:23.984Z,8.34
2022-12-18T09:55:55.538Z,8.82
2022-12-18T09:58:45.467Z,9.01
2022-12-18T10:01:23.865Z,9.50
2022-12-18T10:03:54.611Z,9.88
2022-12-18T10:06:33.196Z,9.33
2022-12-18T10:09:35.897Z,10.82
2022-12-18T10:12:32.174Z,10.58
2022-12-18T10:15:16.911Z,10.93
2022-12-18T10:18:24.184Z,10.62
2022-12-18T10:21:05.468Z,10.98
2022-12-18T10:24:18.922Z,11.34
2022-12-18T10:26:48.849Z,11.96
2022-12-18T10:29:18.303Z,11.81
2022-12-18T10:31:46.038Z,11.91
2022-12-18T10:34:14.409Z,10.18
2022-12-18T10:36:43.746Z,9.21
2022-12-18T10:39:27.190Z,8.72
2022-12-18T10:42:18.373Z,8.72
2022-12-18T10:44:46.560Z,9.22
2022-12-18T10:47:20.525Z,9.97
2022-12-18T10:49:54.322Z,9.70
2022-12-18T10:52:29.613Z,9.71
2022-12-18T10:55:05.641Z,8.43
2022-12-18T10:57:42.733Z,8.33
2022-12-18T11:00:37.463Z,7.96
2022-12-18T11:03:37.040Z,8.15
2022-12-18T11:06:26.078Z,8.95
2022-12-18T11:09:14.460Z,8.80
2022-12-18T11:12:00.271Z,8.76
2022-12-18T11:14:49.889Z,8.23
2022-12-18T11:17:36.678Z,8.75
2022-12-18T11:20:29.209Z,9.19
2022-12-18T11:23:14.212Z,10.00
2022-12-18T11:25:54.927Z,10.71
2022-12-18T11:28:45.852Z,9.62
2022-12-18T11:31:26.778Z,9.01
2022-12-18T11:36:55.937Z,10.33
2022-12-18T11:39:46.263Z,8.46
2022-12-18T11:42:50.145Z,9.00
2022-12-18T11:45:32.701Z,10.20
2022-12-18T11:48:50.048Z,9.78
2022-12-18T11:51:37.143Z,9.02
2022-12-18T11:54:16.948Z,9.96
2022-12-18T11:57:46.531Z,10.05
2022-12-18T12:00:20.321Z,10.11
2022-12-18T12:03:29.171Z,10.04
2022-12-18T12:06:15.819Z,10.06
2022-12-18T12:09:03.851Z,10.08
2022-12-18T12:13:05.521Z,10.17
2022-12-18T12:16:33.547Z,9.99
2022-12-18T12:19:19.595Z,8.35
2022-12-18T12:22:07.745Z,8.33
2022-12-18T12:24:53.305Z,7.73
2022-12-18T12:27:56.619Z,7.10
2022-12-18T12:30:54.504Z,7.27
2022-12-18T12:33:36.769Z,7.54
2022-12-18T12:36:36.454Z,7.71
2022-12-18T12:39:18.943Z,7.27
2022-12-18T12:42:06.664Z,7.24
2022-12-18T12:44:56.180Z,7.29
2022-12-18T12:47:39.947Z,7.56
2022-12-18T12:50:19.973Z,7.44
2022-12-18T12:52:58.367Z,7.21
2022-12-18T12:55:54.431Z,7.09
2022-12-18T12:58:49.176Z,7.07
2022-12-18T13:01:49.576Z,6.90
2022-12-18T13:04:53.747Z,6.87
2022-12-18T13:08:04.644Z,6.62
2022-12-18T13:10:43.363Z,6.36
2022-12-18T13:13:23.219Z,6.26
2022-12-18T13:16:08.227Z,6.21
2022-12-18T13:18:37.115Z,6.34
2022-12-18T13:21:22.456Z,6.35
2022-12-18T13:23:50.369Z,5.88
2022-12-18T13:26:18.059Z,5.75
2022-12-18T13:28:47.445Z,5.55
2022-12-18T13:31:43.384Z,5.44
2022-12-18T13:34:28.097Z,5.54
2022-12-18T13:37:32.289Z,5.41
2022-12-18T13:39:59.889Z,5.21
2022-12-18T13:43:00.350Z,5.37
2022-12-18T13:45:50.394Z,5.17
2022-12-18T13:48:25.257Z,5.17
2022-12-18T13:51:11.270Z,4.99
2022-12-18T13:53:53.950Z,4.78
2022-12-18T13:56:33.651Z,4.67
2022-12-18T13:59:23.878Z,4.74
2022-12-18T14:02:03.838Z,4.69
2022-12-18T14:04:36.187Z,4.49
2022-12-18T14:07:18.909Z,4.41
2022-12-18T14:13:02.009Z,4.25
2022-12-18T14:15:41.410Z,4.26
2022-12-18T14:18:45.496Z,3.85
2022-12-18T14:21:30.467Z,3.95
2022-12-18T14:24:21.355Z,3.27
2022-12-18T14:26:52.027Z,3.06
2022-12-18T14:29:32.125Z,3.10
2022-12-18T14:32:22.038Z,2.68
2022-12-18T14:34:55.293Z,2.62
2022-12-18T14:37:28.918Z,2.61
2022-12-18T14:40:11.061Z,2.58
2022-12-18T14:42:39.201Z,2.44
2022-12-18T14:45:45.150Z,2.51
2022-12-18T14:48:13.785Z,2.61
2022-12-18T14:50:44.323Z,2.48
2022-12-18T14:53:37.737Z,2.36
2022-12-18T14:56:23.440Z,2.10
2022-12-18T14:59:26.151Z,1.95
2022-12-18T15:02:26.971Z,1.88
2022-12-18T15:05:17.560Z,1.88
2022-12-18T15:07:52.444Z,1.62
2022-12-18T15:10:33.693Z,1.34
2022-12-18T15:13:01.515Z,1.23
2022-12-18T15:15:37.723Z,0.93
2022-12-18T15:18:11.528Z,0.73
2022-12-18T15:21:00.381Z,0.73
2022-12-18T15:23:48.088Z,0.60
2022-12-18T15:26:20.278Z,0.65
2022-12-18T15:29:04.011Z,0.61
2022-12-18T15:31:38.596Z,0.52
2022-12-18T15:34:09.373Z,0.49
2022-12-18T15:36:37.600Z,0.54
2022-12-18T15:39:07.069Z,0.50
2022-12-18T15:41:37.710Z,0.37
2022-12-18T15:44:25.080Z,0.26
2022-12-18T15:46:52.659Z,0.28
2022-12-18T15:49:20.366Z,0.24
2022-12-18T15:51:56.434Z,0.01
2022-12-18T15:54:44.418Z,0.04
2022-12-18T15:57:25.628Z,-0.07
2022-12-18T15:59:59.127Z,-0.03
2022-12-18T16:02:29.380Z,-0.11
2022-12-18T16:04:57.888Z,-0.24
2022-12-18T16:07:28.182Z,0.05
2022-12-18T16:09:58.878Z,-0.23
2022-12-18T16:12:27.935Z,-0.54
2022-12-18T16:14:55.433Z,-0.59
2022-12-18T16:17:23.013Z,-0.72
2022-12-18T16:19:55.158Z,-0.58
2022-12-18T16:22:31.851Z,-0.71
2022-12-18T16:24:59.618Z,-0.77
2022-12-18T16:27:27.544Z,-0.71
2022-12-18T16:29:55.769Z,-0.21
2022-12-18T16:32:24.615Z,-0.03
2022-12-18T16:34:52.650Z,-0.29
2022-12-18T16:37:20.051Z,-0.20
2022-12-18T16:39:47.728Z,-0.07
2022-12-18T16:42:21.205Z,0.32
2022-12-18T16:44:50.343Z,0.19
2022-12-18T16:47:19.329Z,0.25
2022-12-18T16:49:47.710Z,0.10
2022-12-18T16:52:16.581Z,-0.17
2022-12-18T16:54:46.099Z,-0.40
2022-12-18T16:57:19.746Z,-0.39
2022-12-18T16:59:49.280Z,-0.75
2022-12-18T17:02:25.225Z,-0.24
2022-12-18T17:04:59.821Z,-0.02
2022-12-18T17:07:28.450Z,-0.09
2022-12-18T17:09:56.723Z,-0.29
2022-12-18T17:12:25.055Z,-0.12
2022-12-18T17:14:52.514Z,0.21
2022-12-18T17:17:21.803Z,0.12
2022-12-18T17:19:52.150Z,0.10
2022-12-18T17:22:23.574Z,0.01
2022-12-18T17:24:50.954Z,-0.08
2022-12-18T17:27:18.758Z,-0.22
2022-12-18T17:29:48.326Z,-0.25
2022-12-18T17:32:18.158Z,0.09
2022-12-18T17:34:46.126Z,0.28
2022-12-18T17:37:14.350Z,0.42
2022-12-18T17:39:42.475Z,0.37
2022-12-18T17:42:14.812Z,0.33
2022-12-18T17:44:44.467Z,0.44
2022-12-18T17:47:17.495Z,0.37
2022-12-18T17:49:45.104Z,0.28
2022-12-18T17:52:12.472Z,-0.04
2022-12-18T17:54:42.147Z,-0.04
2022-12-18T17:57:10.979Z,0.21
2022-12-18T17:59:38.781Z,0.15
2022-12-18T18:02:06.499Z,0.39
2022-12-18T18:04:34.422Z,0.43
2022-12-18T18:07:01.883Z,0.46
2022-12-18T18:09:29.326Z,0.53
2022-12-18T18:12:15.893Z,0.68
2022-12-18T18:14:43.639Z,0.71
2022-12-18T18:17:11.228Z,0.77
2022-12-18T18:19:39.375Z,0.53
2022-12-18T18:22:07.910Z,0.63
2022-12-18T18:24:35.520Z,0.65
2022-12-18T18:27:03.239Z,0.86
2022-12-18T18:29:30.683Z,1.03
2022-12-18T18:31:59.241Z,1.05
2022-12-18T18:34:31.069Z,0.93
2022-12-18T18:36:58.605Z,1.02
2022-12-18T18:39:27.038Z,0.86
2022-12-18T18:41:55.062Z,1.04
2022-12-18T18:44:25.993Z,0.88
2022-12-18T18:46:58.611Z,0.91
2022-12-18T18:49:28.076Z,0.92
2022-12-18T18:51:57.830Z,0.65
2022-12-18T18:54:26.816Z,0.74
2022-12-18T18:59:43.765Z,0.96
2022-12-18T19:02:17.445Z,1.10
2022-12-18T19:04:46.658Z,0.94
2022-12-18T19:07:29.355Z,1.08
2022-12-18T19:10:04.189Z,0.81
2022-12-18T19:12:53.481Z,0.77
2022-12-18T19:15:22.291Z,0.70
2022-12-18T19:17:50.159Z,0.60
2022-12-18T19:20:18.201Z,0.75
2022-12-18T19:22:47.937Z,0.93
2022-12-18T19:25:38.627Z,0.86
2022-12-18T19:28:18.992Z,0.88
2022-12-18T19:30:58.669Z,0.91
2022-12-18T19:33:45.719Z,1.02
2022-12-18T19:36:25.148Z,0.67
2022-12-18T19:38:57.585Z,0.65
2022-12-18T19:41:29.121Z,0.90
2022-12-18T19:43:58.947Z,0.79
2022-12-18T19:46:26.406Z,0.56
2022-12-18T19:48:53.976Z,0.46
2022-12-18T19:51:28.910Z,0.34
2022-12-18T19:54:01.373Z,0.31
2022-12-18T19:56:34.909Z,0.29
2022-12-18T19:59:05.398Z,0.23
2022-12-18T20:01:33.666Z,-0.07
2022-12-18T20:04:01.799Z,0.39
2022-12-18T20:06:53.408Z,0.64
2022-12-18T20:09:22.054Z,0.91
2022-12-18T20:11:50.591Z,0.75
2022-12-18T20:14:22.808Z,0.74
2022-12-18T20:16:52.487Z,0.53
2022-12-18T20:19:22.379Z,0.82
2022-12-18T20:21:50.321Z,0.39
2022-12-18T20:24:18.039Z,0.44
2022-12-18T20:26:45.636Z,0.54
2022-12-18T20:29:13.385Z,0.24
2022-12-18T20:31:41.516Z,0.05
2022-12-18T20:34:09.151Z,-0.03
2022-12-18T20:36:39.818Z,-0.09
2022-12-18T20:39:10.972Z,0.06
2022-12-18T20:41:40.324Z,-0.09
2022-12-18T20:44:21.935Z,-0.01
2022-12-18T20:46:57.877Z,-0.18
2022-12-18T20:49:27.679Z,-0.25
2022-12-18T20:51:57.803Z,-0.01
2022-12-18T20:54:28.216Z,-0.22
2022-12-18T20:56:56.807Z,-0.07
2022-12-18T20:59:25.854Z,0.16
2022-12-18T21:01:54.390Z,0.20
2022-12-18T21:04:24.262Z,0.04
2022-12-18T21:37:19.491Z,0.37
2022-12-18T21:55:35.336Z,0.29
2022-12-18T22:08:23.329Z,0.69
2022-12-18T22:10:52.114Z,0.51
2022-12-18T22:13:19.389Z,0.39
2022-12-18T22:24:22.213Z,0.72
2022-12-18T22:27:01.829Z,0.84
2022-12-18T22:29:51.871Z,0.83
2022-12-18T22:32:30.750Z,0.61
2022-12-18T22:35:06.212Z,0.58
2022-12-18T22:37:35.531Z,0.59
2022-12-18T22:45:27.866Z,1.44
2022-12-18T22:47:55.586Z,0.90
2022-12-18T22:50:23.051Z,0.62
2022-12-18T22:52:50.572Z,0.80
2022-12-18T22:55:18.408Z,1.01
2022-12-18T22:57:48.539Z,1.39
2022-12-18T23:00:24.625Z,1.08
2022-12-18T23:02:59.984Z,1.11
2022-12-18T23:05:30.912Z,1.20
2022-12-18T23:07:59.279Z,1.31
2022-12-18T23:10:27.437Z,1.61
2022-12-18T23:12:54.920Z,1.66
2022-12-18T23:15:27.731Z,1.54
2022-12-18T23:17:58.888Z,1.60
2022-12-18T23:20:28.205Z,1.64
2022-12-18T23:22:55.724Z,1.35
2022-12-18T23:25:23.993Z,1.23
2022-12-18T23:27:52.047Z,1.17
2022-12-18T23:30:19.635Z,1.18
2022-12-18T23:32:47.181Z,1.17
2022-12-18T23:35:16.022Z,1.11
2022-12-18T23:37:58.985Z,1.27
2022-12-18T23:40:29.569Z,1.29
2022-12-18T23:42:57.823Z,1.46
2022-12-18T23:45:25.239Z,1.37
2022-12-18T23:47:52.874Z,1.34
2022-12-18T23:50:22.114Z,1.33
2022-12-18T23:52:57.698Z,1.26
2022-12-18T23:55:40.715Z,1.42
2022-12-18T23:58:19.489Z,1.62
